Time;durP1;ratioP1;P1;durP2;ratioP2;P2;SDS_P1;SDS_P2;PMS_P1;PMS_P2;Temp;Humidity;BMP_temperature;BMP_pressure;BME280_temperature;BME280_humidity;BME280_pressure;Samples;Min_cycle;Max_cycle;Signal;HPM_P1;HPM_P2
2023/03/26 00:00:58;;;;;;;34.30;6.90;;;11.30;99.90;;;;;;4918075;29;20024;-73
2023/03/26 00:03:25;;;;;;;30.50;6.50;;;11.30;99.90;;;;;;4918891;29;20476;-72
2023/03/26 00:06:06;;;;;;;35.60;5.90;;;11.30;99.90;;;;;;4916730;29;20068;-72
2023/03/26 00:08:36;;;;;;;37.25;6.72;;;11.30;99.90;;;;;;4916139;29;20024;-72
2023/03/26 00:11:04;;;;;;;27.45;5.35;;;11.30;99.90;;;;;;4919530;29;20114;-71
2023/03/26 00:13:31;;;;;;;37.10;6.60;;;11.20;99.90;;;;;;4915768;29;20051;-72
2023/03/26 00:15:56;;;;;;;33.00;5.93;;;11.20;99.90;;;;;;4917576;29;20058;-71
2023/03/26 00:18:28;;;;;;;27.90;5.47;;;11.20;99.90;;;;;;4918526;29;20111;-73
2023/03/26 00:20:58;;;;;;;27.75;6.00;;;11.10;99.90;;;;;;4922463;29;20380;-74
2023/03/26 00:23:25;;;;;;;27.08;5.75;;;11.20;99.90;;;;;;4921805;29;20032;-74
2023/03/26 00:25:52;;;;;;;38.83;6.45;;;11.10;99.90;;;;;;4922845;29;20381;-74
2023/03/26 00:28:21;;;;;;;31.40;5.38;;;11.10;99.90;;;;;;4920102;29;20119;-75
2023/03/26 00:30:48;;;;;;;31.58;5.68;;;11.10;99.90;;;;;;4922534;29;20028;-74
2023/03/26 00:33:20;;;;;;;30.90;6.05;;;11.10;99.90;;;;;;4920441;29;20092;-74
2023/03/26 00:35:52;;;;;;;27.80;5.55;;;11.00;99.90;;;;;;4937940;28;20074;-74
2023/03/26 00:38:21;;;;;;;32.63;5.60;;;11.10;99.90;;;;;;4920983;29;20548;-74
2023/03/26 00:40:49;;;;;;;33.83;5.60;;;11.10;99.90;;;;;;4920984;29;20027;-74
2023/03/26 00:43:19;;;;;;;33.53;5.53;;;11.10;99.90;;;;;;4924121;29;20032;-75
2023/03/26 00:45:52;;;;;;;32.60;6.35;;;11.00;99.90;;;;;;4923802;28;20110;-75
2023/03/26 00:48:19;;;;;;;31.42;5.07;;;11.10;99.90;;;;;;4917713;29;20496;-74
2023/03/26 00:50:46;;;;;;;32.63;5.40;;;11.10;99.90;;;;;;4922707;29;20032;-75
2023/03/26 00:53:13;;;;;;;29.55;5.57;;;11.00;99.90;;;;;;4923633;29;20027;-74
2023/03/26 00:55:40;;;;;;;31.58;4.45;;;11.00;99.90;;;;;;4921251;29;20043;-74
2023/03/26 00:58:10;;;;;;;35.70;6.18;;;11.00;99.90;;;;;;4923708;29;20055;-74
2023/03/26 01:00:50;;;;;;;31.73;5.82;;;11.00;99.90;;;;;;4922772;29;20032;-74
2023/03/26 01:03:17;;;;;;;32.90;6.03;;;10.90;99.90;;;;;;4922514;29;20024;-74
2023/03/26 01:05:51;;;;;;;24.38;4.85;;;11.00;99.90;;;;;;4920935;29;20058;-74
2023/03/26 01:08:38;;;;;;;31.08;4.95;;;10.90;99.90;;;;;;4921761;29;20016;-74
2023/03/26 01:11:13;;;;;;;31.25;4.97;;;10.80;99.90;;;;;;4919720;29;20393;-74
2023/03/26 01:13:43;;;;;;;23.70;5.13;;;10.80;99.90;;;;;;4922771;29;20027;-75
2023/03/26 01:16:36;;;;;;;38.63;5.93;;;10.80;99.90;;;;;;4920330;28;20016;-74
2023/03/26 01:19:09;;;;;;;23.52;4.47;;;10.70;99.90;;;;;;4922959;29;20537;-74
2023/03/26 01:21:37;;;;;;;34.17;5.57;;;10.70;99.90;;;;;;4923396;29;20023;-74
2023/03/26 01:24:05;;;;;;;35.22;5.97;;;10.70;99.90;;;;;;4919890;29;20030;-74
2023/03/26 01:26:43;;;;;;;37.70;6.75;;;10.70;99.90;;;;;;4924272;29;20530;-75
2023/03/26 01:29:18;;;;;;;32.33;5.80;;;10.70;99.90;;;;;;4919220;29;20052;-74
2023/03/26 01:31:55;;;;;;;32.13;6.38;;;10.60;99.90;;;;;;4921152;29;20763;-75
2023/03/26 01:34:43;;;;;;;31.05;5.55;;;10.60;99.90;;;;;;4920479;29;20027;-75
2023/03/26 01:37:26;;;;;;;26.15;5.88;;;10.60;99.90;;;;;;4933614;29;20040;-74
2023/03/26 01:39:56;;;;;;;;;;;10.50;99.90;;;;;;4922979;29;20036;-74
2023/03/26 01:42:35;;;;;;;29.08;5.53;;;10.50;99.90;;;;;;4932220;29;20011;-75
2023/03/26 01:45:10;;;;;;;30.27;5.88;;;10.50;99.90;;;;;;4932411;29;20031;-74
2023/03/26 01:47:38;;;;;;;34.15;5.35;;;10.50;99.90;;;;;;4935081;29;20545;-74
2023/03/26 01:50:04;;;;;;;30.52;5.60;;;10.50;99.90;;;;;;4932587;29;20023;-74
2023/03/26 01:52:30;;;;;;;27.17;4.55;;;10.50;99.90;;;;;;4925442;29;20099;-74
2023/03/26 01:54:56;;;;;;;29.17;5.05;;;10.40;99.90;;;;;;4930829;29;20481;-74
2023/03/26 01:57:34;;;;;;;32.38;4.82;;;10.40;99.90;;;;;;4926860;29;20400;-74
2023/03/26 02:00:11;;;;;;;36.03;5.90;;;10.40;99.90;;;;;;4936063;29;20055;-74
2023/03/26 02:03:08;;;;;;;33.67;5.57;;;10.40;99.90;;;;;;4927724;29;20548;-73
2023/03/26 02:05:42;;;;;;;21.30;4.85;;;10.40;99.90;;;;;;4932447;29;20039;-74
2023/03/26 02:08:34;;;;;;;26.45;5.43;;;10.40;99.90;;;;;;4933309;29;20055;-74
2023/03/26 02:11:04;;;;;;;27.80;4.75;;;10.40;99.90;;;;;;4929228;29;20036;-74
2023/03/26 02:13:30;;;;;;;27.02;6.30;;;10.40;99.90;;;;;;4929868;29;20039;-74
2023/03/26 02:16:00;;;;;;;24.58;5.60;;;10.40;99.90;;;;;;4931946;29;20516;-74
2023/03/26 02:18:35;;;;;;;25.92;5.40;;;10.40;99.90;;;;;;4931618;29;20099;-74
2023/03/26 02:21:08;;;;;;;32.33;6.13;;;10.30;99.90;;;;;;4934227;29;20078;-73
2023/03/26 02:23:37;;;;;;;29.33;5.93;;;10.30;99.90;;;;;;4928387;29;20027;-74
2023/03/26 02:26:08;;;;;;;31.50;6.18;;;10.30;99.90;;;;;;4929562;29;20496;-74
2023/03/26 02:28:34;;;;;;;33.05;6.05;;;10.40;99.90;;;;;;4926747;29;20484;-74
2023/03/26 02:31:00;;;;;;;39.33;6.28;;;10.40;99.90;;;;;;4932575;29;20027;-74
2023/03/26 02:33:27;;;;;;;29.48;5.53;;;10.40;99.90;;;;;;4938491;29;20028;-74
2023/03/26 02:35:53;;;;;;;33.08;6.30;;;10.50;99.90;;;;;;4934884;29;20020;-73
2023/03/26 02:38:19;;;;;;;31.27;5.22;;;10.40;99.90;;;;;;4928166;29;20079;-73
2023/03/26 02:40:45;;;;;;;25.35;5.85;;;10.40;99.90;;;;;;4934837;29;20028;-73
2023/03/26 02:43:10;;;;;;;27.02;5.45;;;10.40;99.90;;;;;;4933546;29;20098;-74
2023/03/26 02:45:36;;;;;;;27.08;5.07;;;10.40;99.90;;;;;;4935675;29;20059;-73
2023/03/26 02:48:02;;;;;;;24.65;4.63;;;10.40;99.90;;;;;;4930912;29;20032;-73
2023/03/26 02:50:31;;;;;;;21.00;4.57;;;10.40;99.90;;;;;;4928320;29;20051;-74
2023/03/26 02:52:57;;;;;;;29.27;5.22;;;10.40;99.90;;;;;;4933715;29;20111;-72
2023/03/26 02:55:23;;;;;;;25.60;5.05;;;10.50;99.90;;;;;;4922698;29;20043;-73
2023/03/26 02:57:48;;;;;;;25.63;4.95;;;10.40;99.90;;;;;;4926409;29;20044;-72
2023/03/26 03:00:16;;;;;;;21.90;5.15;;;10.50;99.90;;;;;;4929043;29;20051;-72
2023/03/26 03:02:43;;;;;;;26.00;4.78;;;10.60;99.90;;;;;;4932078;29;20039;-72
2023/03/26 03:05:09;;;;;;;18.52;4.25;;;10.60;99.90;;;;;;4927678;29;20025;-73
2023/03/26 03:07:36;;;;;;;23.15;4.72;;;10.60;99.90;;;;;;4929647;29;20046;-72
2023/03/26 03:10:07;;;;;;;25.58;4.38;;;10.60;99.90;;;;;;4922441;29;20039;-72
2023/03/26 03:12:33;;;;;;;22.27;4.82;;;10.70;99.90;;;;;;4926317;29;20020;-72
2023/03/26 03:14:59;;;;;;;27.42;4.88;;;10.70;99.90;;;;;;4924325;29;20027;-73
2023/03/26 03:17:24;;;;;;;21.67;5.47;;;10.70;99.90;;;;;;4925259;29;20417;-73
2023/03/26 03:19:50;;;;;;;21.17;4.03;;;10.70;99.90;;;;;;4928262;29;20019;-73
2023/03/26 03:22:15;;;;;;;27.48;4.97;;;10.70;99.90;;;;;;4929429;29;20106;-73
2023/03/26 03:24:42;;;;;;;28.92;4.85;;;10.70;99.90;;;;;;4923690;29;20040;-73
2023/03/26 03:27:08;;;;;;;27.23;4.20;;;10.70;99.90;;;;;;4926293;29;20051;-73
2023/03/26 03:29:34;;;;;;;30.90;4.35;;;10.70;99.90;;;;;;4928270;29;20039;-73
2023/03/26 03:32:00;;;;;;;22.83;5.10;;;10.70;99.90;;;;;;4932167;29;20055;-73
2023/03/26 03:34:26;;;;;;;23.73;4.72;;;10.70;99.90;;;;;;4929359;29;20055;-74
2023/03/26 03:36:51;;;;;;;28.58;4.90;;;10.70;99.90;;;;;;4936049;29;20039;-74
2023/03/26 03:39:18;;;;;;;19.13;4.45;;;10.70;99.90;;;;;;4924897;29;20046;-73
2023/03/26 03:41:43;;;;;;;30.52;4.60;;;10.80;99.90;;;;;;4930997;29;20024;-74
2023/03/26 03:44:09;;;;;;;24.20;5.05;;;10.80;99.90;;;;;;4926624;29;20079;-73
2023/03/26 03:46:35;;;;;;;21.20;4.22;;;10.80;99.90;;;;;;4926120;29;20374;-74
2023/03/26 03:49:01;;;;;;;17.35;3.95;;;10.70;99.90;;;;;;4933818;29;20031;-74
2023/03/26 03:51:26;;;;;;;23.88;4.03;;;10.80;99.90;;;;;;4931198;29;20063;-74
2023/03/26 03:53:54;;;;;;;16.45;3.88;;;10.80;99.90;;;;;;4923323;29;20064;-74
2023/03/26 03:56:22;;;;;;;21.55;3.83;;;10.70;99.90;;;;;;4929535;29;20020;-74
2023/03/26 03:58:49;;;;;;;21.27;4.20;;;10.70;99.90;;;;;;4923142;29;20390;-73
2023/03/26 04:01:16;;;;;;;26.33;4.80;;;10.60;99.90;;;;;;4935425;29;20027;-74
2023/03/26 04:03:44;;;;;;;19.63;4.10;;;10.60;99.90;;;;;;4925301;29;20035;-73
2023/03/26 04:06:11;;;;;;;23.48;4.80;;;10.70;99.90;;;;;;4923165;29;20019;-74
2023/03/26 04:08:37;;;;;;;29.58;4.93;;;10.70;99.90;;;;;;4924162;29;20501;-74
2023/03/26 04:11:03;;;;;;;23.35;4.05;;;10.60;99.90;;;;;;4921615;29;20469;-74
2023/03/26 04:13:29;;;;;;;21.30;3.85;;;10.40;99.90;;;;;;4928573;29;20031;-74
2023/03/26 04:15:55;;;;;;;16.40;4.15;;;10.40;99.90;;;;;;4924451;29;20035;-75
2023/03/26 04:18:21;;;;;;;19.58;3.88;;;10.30;99.90;;;;;;4921953;29;20547;-74
2023/03/26 04:20:46;;;;;;;15.48;3.58;;;10.20;99.90;;;;;;4924247;29;20032;-75
2023/03/26 04:23:13;;;;;;;21.85;3.95;;;10.20;99.90;;;;;;4925991;29;20032;-74
2023/03/26 04:25:52;;;;;;;15.45;3.63;;;10.10;99.90;;;;;;4922475;29;20087;-74
2023/03/26 04:28:41;;;;;;;28.85;4.32;;;10.10;99.90;;;;;;4926045;29;20552;-74
2023/03/26 04:31:14;;;;;;;13.98;4.00;;;9.90;99.90;;;;;;4922269;29;20036;-74
2023/03/26 04:33:45;;;;;;;21.48;3.75;;;10.00;99.90;;;;;;4942982;28;20051;-74
2023/03/26 04:36:14;;;;;;;16.13;3.80;;;10.00;99.90;;;;;;4929758;29;20028;-74
2023/03/26 04:38:43;;;;;;;23.65;4.15;;;10.00;99.90;;;;;;4931098;28;20045;-74
2023/03/26 04:41:12;;;;;;;26.38;4.88;;;10.10;99.90;;;;;;4926922;29;20024;-74
2023/03/26 04:43:41;;;;;;;23.60;4.32;;;10.10;99.90;;;;;;4921350;29;20082;-73
2023/03/26 04:46:09;;;;;;;24.30;4.22;;;10.10;99.90;;;;;;4927324;29;20469;-74
2023/03/26 04:48:37;;;;;;;21.23;4.03;;;10.10;99.90;;;;;;4931318;29;20059;-74
2023/03/26 04:51:06;;;;;;;12.90;3.75;;;10.00;99.90;;;;;;4927058;29;20091;-74
2023/03/26 04:53:33;;;;;;;17.08;3.63;;;10.10;99.90;;;;;;4922940;29;20024;-76
2023/03/26 04:56:05;;;;;;;22.55;4.22;;;10.00;99.90;;;;;;4921851;29;20023;-73
2023/03/26 04:58:31;;;;;;;17.58;3.38;;;10.00;99.90;;;;;;4922929;29;20388;-74
2023/03/26 05:01:02;;;;;;;15.85;3.63;;;9.90;99.90;;;;;;4930007;29;20477;-74
2023/03/26 05:03:31;;;;;;;16.70;3.28;;;10.00;99.90;;;;;;4930052;29;20017;-75
2023/03/26 05:05:59;;;;;;;15.32;3.25;;;10.00;99.90;;;;;;4929701;29;20087;-74
2023/03/26 05:08:27;;;;;;;20.60;3.63;;;10.00;99.90;;;;;;4931335;29;21431;-74
2023/03/26 05:10:55;;;;;;;26.45;4.00;;;10.00;99.90;;;;;;4932073;29;20047;-74
2023/03/26 05:13:22;;;;;;;19.02;3.58;;;10.10;99.90;;;;;;4930986;29;20025;-74
2023/03/26 05:15:48;;;;;;;20.58;4.10;;;10.10;99.90;;;;;;4929068;29;20103;-74
2023/03/26 05:18:14;;;;;;;16.20;4.22;;;10.10;99.90;;;;;;4930469;29;20110;-74
2023/03/26 05:20:40;;;;;;;17.10;3.95;;;10.10;99.90;;;;;;4933784;29;20059;-74
2023/03/26 05:23:06;;;;;;;15.65;3.30;;;10.00;99.90;;;;;;4933344;29;20032;-74
2023/03/26 05:25:33;;;;;;;15.95;3.35;;;10.10;99.90;;;;;;4930830;29;20028;-74
2023/03/26 05:28:00;;;;;;;15.95;3.40;;;10.00;99.90;;;;;;4931066;29;20024;-74
2023/03/26 05:30:26;;;;;;;14.80;3.65;;;10.00;99.90;;;;;;4926555;29;20083;-74
2023/03/26 05:32:52;;;;;;;20.98;3.67;;;10.10;99.90;;;;;;4928746;29;20031;-74
2023/03/26 05:35:18;;;;;;;25.15;4.03;;;10.00;99.90;;;;;;4929369;29;20491;-74
2023/03/26 05:37:48;;;;;;;17.98;3.63;;;10.00;99.90;;;;;;4930138;29;20047;-74
2023/03/26 05:40:15;;;;;;;23.88;4.32;;;10.00;99.90;;;;;;4929588;29;20039;-71
2023/03/26 05:42:41;;;;;;;22.73;4.45;;;10.20;99.90;;;;;;4933394;29;20086;-73
2023/03/26 05:45:09;;;;;;;23.55;4.47;;;10.20;99.90;;;;;;4935691;29;20492;-73
2023/03/26 05:47:35;;;;;;;18.27;4.20;;;10.20;99.90;;;;;;4933330;29;20063;-73
2023/03/26 05:50:01;;;;;;;16.30;4.25;;;10.20;99.90;;;;;;4923193;29;20047;-73
2023/03/26 05:52:27;;;;;;;17.42;3.90;;;10.20;99.90;;;;;;4932977;29;20059;-72
2023/03/26 05:54:53;;;;;;;20.00;5.40;;;10.10;99.90;;;;;;4935675;29;20031;-73
2023/03/26 05:57:18;;;;;;;27.58;5.05;;;10.10;99.90;;;;;;4934480;29;20031;-74
2023/03/26 05:59:44;;;;;;;26.98;4.57;;;10.20;99.90;;;;;;4936203;29;20032;-73
2023/03/26 06:02:10;;;;;;;25.48;4.30;;;10.20;99.90;;;;;;4933286;29;20470;-75
2023/03/26 06:04:39;;;;;;;20.08;3.83;;;10.10;99.90;;;;;;4937870;29;20028;-74
2023/03/26 06:07:11;;;;;;;27.67;5.13;;;10.20;99.90;;;;;;4924859;29;20028;-74
2023/03/26 06:09:39;;;;;;;23.90;4.43;;;10.10;99.90;;;;;;4926834;29;20070;-75
2023/03/26 06:12:06;;;;;;;17.85;4.68;;;10.00;99.90;;;;;;4921240;29;20696;-72
2023/03/26 06:14:32;;;;;;;19.02;4.32;;;10.10;99.90;;;;;;4926817;29;20035;-72
2023/03/26 06:16:57;;;;;;;19.92;4.05;;;10.00;99.90;;;;;;4927534;29;20039;-72
2023/03/26 06:19:23;;;;;;;15.07;4.18;;;10.00;99.90;;;;;;4927686;29;20020;-73
2023/03/26 06:21:49;;;;;;;20.08;4.45;;;10.00;99.90;;;;;;4925979;29;20023;-71
2023/03/26 06:24:18;;;;;;;29.45;4.97;;;10.00;99.90;;;;;;4924553;29;20441;-72
2023/03/26 06:26:45;;;;;;;28.10;5.15;;;10.00;99.90;;;;;;4928460;29;20058;-72
2023/03/26 06:29:12;;;;;;;25.35;5.13;;;10.00;99.90;;;;;;4923967;29;20024;-73
2023/03/26 06:31:38;;;;;;;15.35;4.03;;;10.00;99.90;;;;;;4926296;29;20036;-74
2023/03/26 06:34:04;;;;;;;21.90;4.70;;;10.10;99.90;;;;;;4926244;29;20110;-74
2023/03/26 06:36:30;;;;;;;22.15;5.38;;;10.10;99.90;;;;;;4927974;29;20182;-74
2023/03/26 06:38:55;;;;;;;21.63;4.55;;;10.20;99.90;;;;;;4928661;29;20381;-73
2023/03/26 06:41:21;;;;;;;17.15;4.88;;;10.20;99.90;;;;;;4925418;29;20140;-74
2023/03/26 06:43:46;;;;;;;20.83;4.53;;;10.20;99.90;;;;;;4928898;29;20109;-73
2023/03/26 06:46:12;;;;;;;30.17;6.05;;;10.30;99.90;;;;;;4923449;29;20035;-74
2023/03/26 06:48:41;;;;;;;23.25;5.65;;;10.10;99.90;;;;;;4926161;29;20080;-73
2023/03/26 06:51:07;;;;;;;23.70;4.90;;;10.10;99.90;;;;;;4926190;29;20544;-73
2023/03/26 06:53:33;;;;;;;23.75;4.55;;;10.10;99.90;;;;;;4930572;29;20023;-73
2023/03/26 06:55:58;;;;;;;16.42;4.30;;;10.10;99.90;;;;;;4931143;29;20034;-74
2023/03/26 06:58:24;;;;;;;24.67;5.57;;;10.00;99.90;;;;;;4925294;29;20039;-73
2023/03/26 07:00:54;;;;;;;28.35;5.07;;;10.20;99.90;;;;;;4932252;29;20067;-74
2023/03/26 07:03:20;;;;;;;24.20;4.60;;;10.20;99.90;;;;;;4924886;29;20039;-73
2023/03/26 07:05:46;;;;;;;20.42;4.65;;;10.20;99.90;;;;;;4925589;29;20514;-73
2023/03/26 07:08:12;;;;;;;21.85;5.00;;;10.20;99.90;;;;;;4931503;29;20055;-74
2023/03/26 07:10:37;;;;;;;18.30;5.07;;;10.30;99.90;;;;;;4928964;29;20031;-74
2023/03/26 07:13:03;;;;;;;21.92;5.63;;;10.20;99.90;;;;;;4929846;29;20034;-74
2023/03/26 07:15:29;;;;;;;22.27;5.63;;;10.20;99.90;;;;;;4925237;29;20477;-74
2023/03/26 07:17:55;;;;;;;26.02;5.40;;;10.20;99.90;;;;;;4922120;29;20043;-73
2023/03/26 07:20:20;;;;;;;25.05;5.30;;;10.20;99.90;;;;;;4926184;29;20016;-74
2023/03/26 07:22:47;;;;;;;22.08;4.70;;;10.30;99.90;;;;;;4931718;29;20374;-73
2023/03/26 07:25:14;;;;;;;20.17;4.82;;;10.30;99.90;;;;;;4925051;29;20030;-76
2023/03/26 07:27:53;;;;;;;31.02;5.43;;;10.30;99.90;;;;;;4927762;29;20031;-73
2023/03/26 07:30:39;;;;;;;27.48;4.75;;;10.50;99.90;;;;;;4919946;29;20016;-74
2023/03/26 07:33:33;;;;;;;23.90;4.90;;;10.40;99.90;;;;;;4927314;29;20028;-74
2023/03/26 07:36:19;;;;;;;18.75;4.50;;;10.40;99.90;;;;;;4921896;29;20036;-74
2023/03/26 07:39:11;;;;;;;19.65;4.78;;;10.40;99.90;;;;;;4922327;29;20055;-73
2023/03/26 07:41:47;;;;;;;18.77;4.65;;;10.50;99.90;;;;;;4924193;29;20123;-74
2023/03/26 07:44:31;;;;;;;21.17;5.53;;;10.50;99.90;;;;;;4919838;29;20040;-73
2023/03/26 07:46:59;;;;;;;19.70;4.50;;;10.60;99.90;;;;;;4930048;29;20102;-71
2023/03/26 07:49:25;;;;;;;19.52;4.47;;;10.40;99.90;;;;;;4925062;29;20034;-77
2023/03/26 07:51:51;;;;;;;21.73;4.43;;;10.40;99.90;;;;;;4927582;29;20028;-79
2023/03/26 07:54:17;;;;;;;26.85;5.47;;;10.40;99.90;;;;;;4925046;29;20024;-78
2023/03/26 07:57:04;;;;;;;26.63;4.88;;;10.30;99.90;;;;;;4930295;29;20035;-82
2023/03/26 07:59:38;;;;;;;23.90;4.90;;;10.40;99.90;;;;;;4922180;29;20039;-74
2023/03/26 08:02:26;;;;;;;21.95;6.13;;;10.40;99.90;;;;;;4929574;29;20031;-75
2023/03/26 08:05:19;;;;;;;18.67;4.60;;;10.40;99.90;;;;;;4927946;29;20032;-74
2023/03/26 08:07:49;;;;;;;18.08;4.78;;;10.20;99.90;;;;;;4925044;29;20039;-74
2023/03/26 08:10:37;;;;;;;11.88;3.75;;;10.30;99.90;;;;;;4925591;29;20043;-75
2023/03/26 08:13:29;;;;;;;19.55;4.60;;;10.40;99.90;;;;;;4931970;29;20481;-75
2023/03/26 08:16:07;;;;;;;15.82;4.43;;;10.40;99.90;;;;;;4921097;29;20032;-75
2023/03/26 08:18:58;;;;;;;12.07;3.30;;;10.50;99.90;;;;;;4927005;29;20493;-72
2023/03/26 08:21:41;;;;;;;13.05;2.75;;;10.30;99.90;;;;;;4924019;29;20075;-77
2023/03/26 08:24:35;;;;;;;15.48;3.55;;;10.20;99.90;;;;;;4931039;29;20384;-79
2023/03/26 08:27:07;;;;;;;12.65;4.18;;;10.10;99.90;;;;;;4930736;29;20060;-74
2023/03/26 08:29:50;;;;;;;21.77;3.80;;;10.10;99.90;;;;;;4922665;29;20079;-76
2023/03/26 08:32:17;;;;;;;;;;;10.20;99.90;;;;;;4922555;29;20032;-75
2023/03/26 08:34:44;;;;;;;9.93;3.20;;;10.30;99.90;;;;;;4925553;29;19954;-76
2023/03/26 08:37:10;;;;;;;10.95;2.80;;;10.20;99.90;;;;;;4936386;28;20046;-73
2023/03/26 08:39:37;;;;;;;13.27;3.00;;;10.20;99.90;;;;;;4931318;29;20027;-75
2023/03/26 08:43:05;;;;;;;11.20;2.67;;;10.30;99.90;;;;;;4930859;29;20027;-74
2023/03/26 08:46:06;;;;;;;14.88;2.80;;;10.30;99.90;;;;;;4905139;29;20059;-73
2023/03/26 08:49:00;;;;;;;8.60;2.65;;;10.30;99.90;;;;;;4927513;29;20032;-75
2023/03/26 08:51:47;;;;;;;12.20;2.90;;;10.30;99.90;;;;;;4929673;29;20039;-76
2023/03/26 08:54:25;;;;;;;11.13;2.40;;;10.30;99.90;;;;;;4927850;29;20055;-75
2023/03/26 08:57:16;;;;;;;9.82;2.40;;;10.20;99.90;;;;;;4929728;29;20042;-72
2023/03/26 08:59:48;;;;;;;6.72;2.33;;;10.20;99.90;;;;;;4929361;29;20028;-72
2023/03/26 09:02:22;;;;;;;10.73;2.25;;;10.10;99.90;;;;;;4929260;29;20032;-75
2023/03/26 09:05:26;;;;;;;7.88;2.22;;;10.10;99.90;;;;;;4925827;29;20040;-72
2023/03/26 09:08:16;;;;;;;13.27;2.35;;;10.10;99.90;;;;;;4927915;29;20039;-72
2023/03/26 09:11:08;;;;;;;6.88;2.40;;;10.30;99.90;;;;;;4925727;29;20123;-72
2023/03/26 09:13:56;;;;;;;8.43;2.10;;;10.20;99.90;;;;;;4928486;29;20370;-74
2023/03/26 09:16:33;;;;;;;9.82;2.08;;;10.30;99.90;;;;;;4934184;29;20028;-72
2023/03/26 09:19:14;;;;;;;9.88;1.63;;;10.20;99.90;;;;;;4924799;29;20110;-73
2023/03/26 09:22:04;;;;;;;6.30;1.90;;;10.30;99.90;;;;;;4928420;29;20033;-74
2023/03/26 09:25:21;;;;;;;7.13;1.70;;;10.00;99.90;;;;;;4925654;29;20032;-74
2023/03/26 09:27:59;;;;;;;6.88;1.70;;;10.00;99.90;;;;;;4929452;29;20035;-74
2023/03/26 09:31:02;;;;;;;5.88;1.80;;;10.00;99.90;;;;;;4925481;29;20035;-74
2023/03/26 09:33:43;;;;;;;7.43;1.48;;;10.00;99.90;;;;;;4924018;29;20036;-73
2023/03/26 09:36:45;;;;;;;10.80;2.05;;;9.90;99.90;;;;;;4928823;29;20032;-71
2023/03/26 09:39:52;;;;;;;5.75;1.60;;;9.90;99.90;;;;;;4928059;29;20127;-73
2023/03/26 09:42:42;;;;;;;3.70;1.38;;;10.00;99.90;;;;;;4904395;29;20067;-74
2023/03/26 09:45:35;;;;;;;5.68;1.20;;;9.90;99.90;;;;;;4933671;29;20035;-71
2023/03/26 09:48:20;;;;;;;;;;;10.10;99.90;;;;;;4930247;29;20511;-73
2023/03/26 09:51:28;;;;;;;4.00;1.45;;;10.00;99.90;;;;;;4930876;29;20418;-74
2023/03/26 09:54:17;;;;;;;4.95;1.70;;;10.00;99.90;;;;;;4917816;29;20507;-74
2023/03/26 09:56:51;;;;;;;7.40;1.80;;;10.10;99.90;;;;;;4924363;29;20032;-74
2023/03/26 09:59:54;;;;;;;3.83;1.50;;;9.90;99.90;;;;;;4924003;29;20042;-74
2023/03/26 10:02:38;;;;;;;4.97;1.17;;;9.90;99.90;;;;;;4933324;29;20055;-74
2023/03/26 10:05:16;;;;;;;4.78;1.27;;;9.90;99.90;;;;;;4915588;29;20367;-71
2023/03/26 10:08:01;;;;;;;3.88;1.00;;;9.80;99.90;;;;;;4911113;29;20059;-71
2023/03/26 10:10:52;;;;;;;3.05;1.38;;;10.00;99.90;;;;;;4919844;29;20123;-74
2023/03/26 10:13:29;;;;;;;2.17;0.90;;;10.10;99.90;;;;;;4921127;29;20027;-74
2023/03/26 10:16:01;;;;;;;2.70;1.13;;;10.00;99.90;;;;;;4923689;29;20495;-72
2023/03/26 10:18:36;;;;;;;3.80;1.00;;;10.10;99.90;;;;;;4922315;29;20051;-71
2023/03/26 10:21:29;;;;;;;4.70;0.90;;;10.10;99.90;;;;;;4921395;29;20477;-74
2023/03/26 10:24:01;;;;;;;2.15;0.88;;;10.10;99.90;;;;;;4919822;29;20088;-74
2023/03/26 10:27:06;;;;;;;2.22;1.08;;;10.20;99.90;;;;;;4919299;29;20016;-77
2023/03/26 10:29:34;;;;;;;3.85;1.00;;;10.20;99.90;;;;;;4940801;28;21941;-74
2023/03/26 10:32:27;;;;;;;4.60;1.10;;;10.20;99.90;;;;;;4922397;29;20390;-73
2023/03/26 10:34:53;;;;;;;4.00;1.13;;;10.10;99.90;;;;;;4920831;29;20035;-74
2023/03/26 10:37:36;;;;;;;4.00;1.02;;;10.30;99.90;;;;;;4923676;29;20378;-73
2023/03/26 10:40:09;;;;;;;2.83;1.25;;;10.40;99.90;;;;;;4920176;29;20039;-70
2023/03/26 10:42:54;;;;;;;2.55;0.90;;;10.50;99.90;;;;;;4923066;29;20028;-71
2023/03/26 10:45:48;;;;;;;6.50;1.20;;;10.70;99.90;;;;;;4923332;29;20035;-70
2023/03/26 10:48:35;;;;;;;4.20;1.13;;;10.70;99.90;;;;;;4921922;28;20043;-70
2023/03/26 10:51:12;;;;;;;2.92;0.90;;;10.60;99.90;;;;;;4922340;29;20476;-77
2023/03/26 10:53:43;;;;;;;2.63;1.10;;;10.70;99.90;;;;;;4919816;29;20028;-72
2023/03/26 10:56:16;;;;;;;4.47;1.17;;;10.80;99.90;;;;;;4919996;29;20087;-76
2023/03/26 10:58:42;;;;;;;4.55;1.50;;;10.70;99.90;;;;;;4920003;29;20048;-77
2023/03/26 11:01:21;;;;;;;2.88;1.30;;;10.70;99.90;;;;;;4918794;29;20047;-76
2023/03/26 11:03:53;;;;;;;4.28;1.55;;;10.80;99.90;;;;;;4923195;29;20133;-77
2023/03/26 11:06:43;;;;;;;5.68;1.45;;;10.80;99.90;;;;;;4924538;29;20058;-74
2023/03/26 11:09:17;;;;;;;3.63;1.20;;;10.80;99.90;;;;;;4918116;29;20119;-68
2023/03/26 11:12:10;;;;;;;3.65;1.30;;;10.60;99.90;;;;;;4922803;29;20027;-69
2023/03/26 11:14:38;;;;;;;3.30;1.27;;;10.70;99.90;;;;;;4920812;29;20034;-71
2023/03/26 11:17:16;;;;;;;3.15;1.40;;;11.00;99.90;;;;;;4920651;29;20055;-70
2023/03/26 11:19:47;;;;;;;3.63;1.38;;;10.90;99.90;;;;;;4918970;28;20043;-75
2023/03/26 11:22:42;;;;;;;1.80;1.17;;;10.90;99.90;;;;;;4924434;29;20066;-76
2023/03/26 11:25:46;;;;;;;2.97;1.20;;;11.10;99.90;;;;;;4918699;29;20036;-75
2023/03/26 11:28:29;;;;;;;1.40;1.30;;;10.80;99.90;;;;;;4920694;29;20528;-77
2023/03/26 11:31:09;;;;;;;3.75;1.45;;;10.90;99.90;;;;;;4916485;29;20655;-74
2023/03/26 11:33:42;;;;;;;3.22;1.00;;;11.10;99.90;;;;;;4923248;29;20034;-78
2023/03/26 11:36:10;;;;;;;;;;;11.10;99.90;;;;;;4919149;29;20036;-78
2023/03/26 11:38:42;;;;;;;2.00;1.20;;;11.10;99.90;;;;;;4923899;29;19923;-74
2023/03/26 11:41:19;;;;;;;1.67;1.00;;;11.20;99.90;;;;;;4922977;29;20098;-77
2023/03/26 11:43:49;;;;;;;0.98;0.88;;;11.10;99.90;;;;;;4922306;29;20039;-77
2023/03/26 11:46:19;;;;;;;1.27;0.60;;;11.00;99.90;;;;;;4924320;29;20024;-76
2023/03/26 11:48:48;;;;;;;2.35;1.00;;;11.20;99.90;;;;;;4920121;29;20026;-76
2023/03/26 11:51:17;;;;;;;1.35;1.00;;;11.30;99.90;;;;;;4920769;29;20034;-72
2023/03/26 11:53:46;;;;;;;0.95;0.80;;;11.30;99.90;;;;;;4919329;29;20054;-77
2023/03/26 11:56:28;;;;;;;2.97;1.10;;;11.50;99.90;;;;;;4919878;29;20614;-74
2023/03/26 11:59:27;;;;;;;2.10;1.70;;;11.60;99.90;;;;;;4917926;29;20090;-77
2023/03/26 12:02:03;;;;;;;2.95;2.00;;;11.60;99.90;;;;;;4924797;29;20024;-77
2023/03/26 12:04:44;;;;;;;3.78;1.42;;;11.70;99.90;;;;;;4919016;29;20032;-77
2023/03/26 12:07:30;;;;;;;1.38;1.17;;;11.70;99.90;;;;;;4919539;28;20032;-76
2023/03/26 12:10:01;;;;;;;2.40;1.00;;;11.70;99.90;;;;;;4921694;29;20032;-77
2023/03/26 12:12:38;;;;;;;2.25;1.60;;;11.70;99.90;;;;;;4919791;29;20038;-76
2023/03/26 12:15:12;;;;;;;3.00;1.30;;;11.70;99.90;;;;;;4923154;29;20035;-76
2023/03/26 12:17:39;;;;;;;2.17;1.58;;;11.60;99.90;;;;;;4922663;29;20044;-75
2023/03/26 12:20:32;;;;;;;1.83;1.13;;;11.70;99.90;;;;;;4919392;29;20087;-72
2023/03/26 12:23:00;;;;;;;2.70;1.30;;;11.80;99.90;;;;;;4920612;28;20051;-77
2023/03/26 12:25:28;;;;;;;3.33;1.67;;;11.70;99.90;;;;;;4924524;29;20051;-76
2023/03/26 12:28:03;;;;;;;2.90;1.50;;;11.80;99.90;;;;;;4919085;29;20389;-76
2023/03/26 12:30:32;;;;;;;1.40;1.13;;;11.70;99.90;;;;;;4921662;29;20036;-76
2023/03/26 12:33:04;;;;;;;2.70;1.33;;;11.70;99.90;;;;;;4923925;29;20088;-76
2023/03/26 12:35:33;;;;;;;1.40;1.30;;;11.70;99.90;;;;;;4922022;29;20027;-78
2023/03/26 12:38:20;;;;;;;3.35;1.40;;;11.70;99.90;;;;;;4925071;29;20095;-75
2023/03/26 12:40:47;;;;;;;1.73;1.60;;;11.60;99.90;;;;;;4921348;29;20520;-75
2023/03/26 12:43:24;;;;;;;1.90;1.70;;;11.60;99.90;;;;;;4920974;29;20050;-77
2023/03/26 12:45:54;;;;;;;2.47;1.58;;;11.70;99.90;;;;;;4923029;29;20711;-77
2023/03/26 12:48:24;;;;;;;2.08;1.88;;;11.70;99.90;;;;;;4923033;29;20020;-77
2023/03/26 12:51:05;;;;;;;3.30;1.90;;;11.70;99.90;;;;;;4921445;29;20038;-75
2023/03/26 12:54:24;;;;;;;3.13;1.73;;;11.70;99.90;;;;;;4920460;29;20107;-74
2023/03/26 12:57:37;;;;;;;1.50;1.40;;;11.70;99.90;;;;;;4939541;28;20042;-76
2023/03/26 13:00:18;;;;;;;3.05;1.45;;;11.50;99.90;;;;;;4869944;29;20078;-76
2023/03/26 13:03:10;;;;;;;2.03;1.63;;;11.50;99.90;;;;;;4845207;29;20034;-77
2023/03/26 13:06:09;;;;;;;1.50;1.40;;;11.40;99.90;;;;;;4907504;29;20110;-73
2023/03/26 13:08:51;;;;;;;2.00;1.50;;;11.40;99.90;;;;;;4921646;29;20102;-74
2023/03/26 13:11:44;;;;;;;2.23;1.97;;;11.50;99.90;;;;;;4925699;29;20389;-77
2023/03/26 13:14:40;;;;;;;3.80;1.88;;;11.60;99.90;;;;;;4921240;29;20083;-78
2023/03/26 13:17:18;;;;;;;3.65;1.83;;;11.70;99.90;;;;;;4920104;29;20043;-78